createdAt,value
2022-08-13T00:01:43.530Z,13.81
2022-08-13T00:04:19.966Z,14.21
2022-08-13T00:06:53.767Z,13.97
2022-08-13T00:09:24.492Z,14.01
2022-08-13T00:12:32.748Z,13.95
2022-08-13T00:15:01.843Z,13.90
2022-08-13T00:17:50.223Z,13.67
2022-08-13T00:20:25.756Z,13.52
2022-08-13T00:23:01.190Z,13.55
2022-08-13T00:25:42.994Z,13.63
2022-08-13T00:28:19.813Z,13.64
2022-08-13T00:30:48.557Z,13.49
2022-08-13T00:33:42.438Z,13.44
2022-08-13T00:36:10.285Z,13.35
2022-08-13T00:38:37.518Z,13.40
2022-08-13T00:41:06.110Z,13.31
2022-08-13T00:43:35.111Z,13.43
2022-08-13T00:46:05.470Z,13.39
2022-08-13T00:48:46.585Z,13.31
2022-08-13T00:51:57.419Z,13.43
2022-08-13T00:54:18.024Z,13.39
2022-08-13T00:56:46.433Z,13.38
2022-08-13T00:59:14.980Z,13.42
2022-08-13T01:01:48.197Z,13.30
2022-08-13T01:04:24.649Z,13.27
2022-08-13T01:06:54.025Z,13.20
2022-08-13T01:10:18.172Z,13.20
2022-08-13T01:12:16.750Z,13.17
2022-08-13T01:14:48.201Z,13.15
2022-08-13T01:17:16.452Z,13.19
2022-08-13T01:19:52.771Z,13.18
2022-08-13T01:22:30.210Z,13.17
2022-08-13T01:25:06.121Z,13.15
2022-08-13T01:27:34.716Z,13.09
2022-08-13T01:30:05.102Z,13.08
2022-08-13T01:32:54.215Z,12.99
2022-08-13T01:35:21.558Z,13.01
2022-08-13T01:37:59.750Z,13.01
2022-08-13T01:40:32.621Z,12.99
2022-08-13T01:43:02.792Z,13.03
2022-08-13T01:45:52.069Z,13.17
2022-08-13T01:48:48.357Z,13.12
2022-08-13T01:51:43.134Z,12.99
2022-08-13T01:54:39.148Z,12.95
2022-08-13T01:57:00.885Z,12.97
2022-08-13T02:00:02.002Z,12.89
2022-08-13T02:02:31.554Z,12.88
2022-08-13T02:05:02.326Z,12.86
2022-08-13T02:08:00.962Z,13.02
2022-08-13T02:10:22.847Z,12.93
2022-08-13T02:12:51.123Z,13.01
2022-08-13T02:15:18.481Z,13.01
2022-08-13T02:18:02.517Z,12.92
2022-08-13T02:20:35.862Z,12.90
2022-08-13T02:23:05.218Z,13.03
2022-08-13T02:25:34.378Z,13.15
2022-08-13T02:28:01.475Z,13.18
2022-08-13T02:30:30.775Z,13.03
2022-08-13T02:33:01.486Z,12.98
2022-08-13T02:35:38.589Z,12.78
2022-08-13T02:38:29.791Z,13.05
2022-08-13T02:41:17.411Z,12.92
2022-08-13T02:43:54.905Z,12.87
2022-08-13T02:46:27.904Z,12.72
2022-08-13T02:49:00.535Z,12.75
2022-08-13T02:52:08.357Z,12.78
2022-08-13T02:54:22.102Z,12.73
2022-08-13T02:56:52.623Z,12.70
2022-08-13T02:59:29.667Z,12.95
2022-08-13T03:02:07.081Z,12.90
2022-08-13T03:04:35.289Z,12.72
2022-08-13T03:07:02.819Z,12.60
2022-08-13T03:09:30.905Z,12.54
2022-08-13T03:12:05.599Z,12.54
2022-08-13T03:14:39.878Z,12.63
2022-08-13T03:17:22.826Z,12.61
2022-08-13T03:19:51.260Z,12.58
2022-08-13T03:22:23.594Z,12.47
2022-08-13T03:24:50.423Z,12.34
2022-08-13T03:27:17.226Z,12.29
2022-08-13T03:30:02.546Z,12.31
2022-08-13T03:32:36.811Z,12.32
2022-08-13T03:35:09.933Z,12.43
2022-08-13T03:37:38.556Z,12.43
2022-08-13T03:40:06.954Z,12.44
2022-08-13T03:42:50.913Z,12.28
2022-08-13T03:45:20.892Z,12.17
2022-08-13T03:47:50.002Z,12.20
2022-08-13T03:50:17.302Z,12.23
2022-08-13T03:52:44.432Z,12.03
2022-08-13T03:55:15.301Z,12.11
2022-08-13T03:58:01.959Z,12.09
2022-08-13T04:00:32.380Z,12.05
2022-08-13T04:03:01.774Z,12.02
2022-08-13T04:05:41.829Z,12.10
2022-08-13T04:08:16.448Z,12.06
2022-08-13T04:10:51.878Z,12.14
2022-08-13T04:14:04.678Z,12.06
2022-08-13T04:16:13.142Z,12.17
2022-08-13T04:18:41.373Z,12.10
2022-08-13T04:21:21.779Z,12.15
2022-08-13T04:23:51.299Z,12.22
2022-08-13T04:26:30.797Z,12.37
2022-08-13T04:29:07.705Z,12.23
2022-08-13T04:31:47.643Z,12.25
2022-08-13T04:34:33.618Z,12.39
2022-08-13T04:37:20.641Z,12.52
2022-08-13T04:40:07.713Z,12.49
2022-08-13T04:42:55.881Z,12.45
2022-08-13T04:45:25.339Z,12.40
2022-08-13T04:47:54.534Z,12.48
2022-08-13T04:50:22.805Z,12.53
2022-08-13T04:52:51.566Z,12.70
2022-08-13T04:55:19.762Z,12.84
2022-08-13T04:57:55.608Z,12.89
2022-08-13T05:00:32.679Z,12.96
2022-08-13T05:03:11.431Z,12.94
2022-08-13T05:05:42.123Z,13.09
2022-08-13T05:08:09.899Z,13.34
2022-08-13T05:10:39.223Z,13.35
2022-08-13T05:13:21.978Z,13.41
2022-08-13T05:15:50.126Z,13.38
2022-08-13T05:18:28.060Z,13.54
2022-08-13T05:21:04.623Z,13.66
2022-08-13T05:26:21.223Z,13.66
2022-08-13T05:26:33.578Z,13.64
2022-08-13T05:31:55.402Z,13.61
2022-08-13T05:34:29.054Z,13.77
2022-08-13T05:38:13.836Z,13.93
2022-08-13T05:39:48.209Z,13.95
2022-08-13T05:42:26.613Z,13.97
2022-08-13T05:44:57.174Z,14.12
2022-08-13T05:47:25.459Z,14.12
2022-08-13T05:49:54.986Z,14.17
2022-08-13T05:52:37.021Z,14.24
2022-08-13T05:56:06.026Z,14.24
2022-08-13T05:57:59.736Z,14.00
2022-08-13T06:00:46.124Z,14.11
2022-08-13T06:04:15.339Z,14.10
2022-08-13T06:06:23.705Z,14.22
2022-08-13T06:08:59.082Z,14.50
2022-08-13T06:12:09.240Z,14.55
2022-08-13T06:14:22.566Z,15.00
2022-08-13T06:16:54.731Z,15.34
2022-08-13T06:19:28.366Z,15.65
2022-08-13T06:22:03.301Z,15.93
2022-08-13T06:24:45.359Z,16.19
2022-08-13T06:27:20.372Z,16.61
2022-08-13T06:29:51.385Z,16.92
2022-08-13T06:32:35.469Z,17.27
2022-08-13T06:35:11.518Z,17.83
2022-08-13T06:37:50.313Z,17.97
2022-08-13T06:40:32.588Z,18.09
2022-08-13T06:43:06.913Z,18.11
2022-08-13T06:45:35.412Z,18.28
2022-08-13T06:48:04.851Z,18.27
2022-08-13T06:50:44.878Z,18.50
2022-08-13T06:54:26.186Z,18.52
2022-08-13T06:56:21.768Z,18.76
2022-08-13T06:58:55.965Z,19.22
2022-08-13T07:01:35.947Z,19.39
2022-08-13T07:04:29.284Z,20.04
2022-08-13T07:06:58.239Z,20.16
2022-08-13T07:09:25.330Z,20.27
2022-08-13T07:11:59.883Z,20.11
2022-08-13T07:14:27.371Z,19.82
2022-08-13T07:17:00.315Z,19.83
2022-08-13T07:19:54.568Z,19.75
2022-08-13T07:24:38.397Z,19.73
2022-08-13T07:25:05.707Z,19.85
2022-08-13T07:27:42.945Z,19.86
2022-08-13T07:30:17.928Z,19.68
2022-08-13T07:32:48.894Z,19.75
2022-08-13T07:35:26.887Z,19.75
2022-08-13T07:38:03.618Z,19.72
2022-08-13T07:40:51.639Z,19.76
2022-08-13T07:43:23.514Z,19.87
2022-08-13T07:46:26.052Z,19.57
2022-08-13T07:48:58.169Z,19.87
2022-08-13T07:51:36.543Z,20.03
2022-08-13T07:54:08.982Z,20.50
2022-08-13T07:56:37.284Z,20.91
2022-08-13T07:59:07.664Z,21.04
2022-08-13T08:02:22.813Z,21.14
2022-08-13T08:04:42.016Z,21.12
2022-08-13T08:07:15.824Z,21.18
2022-08-13T08:09:44.096Z,21.25
2022-08-13T08:12:29.436Z,21.44
2022-08-13T08:14:57.575Z,22.09
2022-08-13T08:18:15.894Z,22.71
2022-08-13T08:23:13.537Z,22.74
2022-08-13T08:24:03.890Z,22.65
2022-08-13T08:25:49.857Z,22.64
2022-08-13T08:28:34.430Z,22.71
2022-08-13T08:31:21.033Z,22.81
2022-08-13T08:34:36.578Z,23.13
2022-08-13T08:37:05.382Z,23.43
2022-08-13T08:40:30.448Z,23.25
2022-08-13T08:43:21.627Z,23.48
2022-08-13T08:46:11.025Z,23.81
2022-08-13T08:48:41.568Z,23.81
2022-08-13T08:51:18.850Z,24.04
2022-08-13T08:54:10.974Z,24.12
2022-08-13T08:56:36.932Z,24.25
2022-08-13T08:59:22.888Z,24.90
2022-08-13T09:02:00.427Z,25.02
2022-08-13T09:04:46.831Z,25.13
2022-08-13T09:07:22.939Z,25.42
2022-08-13T09:10:00.648Z,25.65
2022-08-13T09:12:28.667Z,25.91
2022-08-13T09:14:57.968Z,26.11
2022-08-13T09:17:36.058Z,26.25
2022-08-13T09:20:18.994Z,26.61
2022-08-13T09:22:54.521Z,26.83
2022-08-13T09:25:26.055Z,27.38
2022-08-13T09:28:03.284Z,27.68
2022-08-13T09:30:43.099Z,28.20
2022-08-13T09:33:43.294Z,28.14
2022-08-13T09:36:01.182Z,27.87
2022-08-13T09:38:31.617Z,27.72
2022-08-13T09:41:11.456Z,28.24
2022-08-13T09:43:48.373Z,28.49
2022-08-13T09:46:20.355Z,28.64
2022-08-13T09:48:54.519Z,29.15
2022-08-13T09:51:55.196Z,29.44
2022-08-13T09:54:13.133Z,29.22
2022-08-13T09:56:40.887Z,29.31
2022-08-13T09:59:15.509Z,28.95
2022-08-13T10:01:58.214Z,28.68
2022-08-13T10:04:28.483Z,28.72
2022-08-13T10:07:03.928Z,28.38
2022-08-13T10:09:33.051Z,28.15
2022-08-13T10:12:19.465Z,28.63
2022-08-13T10:14:56.518Z,29.18
2022-08-13T10:17:37.200Z,29.67
2022-08-13T10:20:20.404Z,29.61
2022-08-13T10:22:48.692Z,29.58
2022-08-13T10:25:18.224Z,30.02
2022-08-13T10:27:50.136Z,30.56
2022-08-13T10:30:57.430Z,30.66
2022-08-13T10:33:17.290Z,30.39
2022-08-13T10:36:00.488Z,30.51
2022-08-13T10:38:33.580Z,29.83
2022-08-13T10:41:09.753Z,29.28
2022-08-13T10:43:45.983Z,28.42
2022-08-13T10:46:27.687Z,27.72
2022-08-13T10:48:59.881Z,27.47
2022-08-13T10:51:30.096Z,27.07
2022-08-13T10:54:01.633Z,27.15
2022-08-13T10:56:31.319Z,27.76
2022-08-13T10:59:00.922Z,27.81
2022-08-13T11:01:29.901Z,27.21
2022-08-13T11:04:05.405Z,27.20
2022-08-13T11:06:40.679Z,27.81
2022-08-13T11:09:21.532Z,27.73
2022-08-13T11:12:02.799Z,28.10
2022-08-13T11:14:34.944Z,28.06
2022-08-13T11:17:11.139Z,27.72
2022-08-13T11:20:56.307Z,27.36
2022-08-13T11:24:00.482Z,27.43
2022-08-13T11:26:32.120Z,27.43
2022-08-13T11:29:07.377Z,27.59
2022-08-13T11:31:59.141Z,28.02
2022-08-13T11:34:21.389Z,28.26
2022-08-13T11:36:49.322Z,28.21
2022-08-13T11:39:16.904Z,28.34
2022-08-13T11:41:57.641Z,28.65
2022-08-13T11:44:24.633Z,29.30
2022-08-13T11:46:51.760Z,29.15
2022-08-13T11:49:19.786Z,28.99
2022-08-13T11:51:52.662Z,29.21
2022-08-13T11:54:31.606Z,29.61
2022-08-13T11:57:08.489Z,29.21
2022-08-13T11:59:45.187Z,29.68
2022-08-13T12:02:17.665Z,29.60
2022-08-13T12:04:49.103Z,30.15
2022-08-13T12:07:22.743Z,29.88
2022-08-13T12:09:54.269Z,29.61
2022-08-13T12:12:31.101Z,29.47
2022-08-13T12:15:02.449Z,29.49
2022-08-13T12:17:49.952Z,28.95
2022-08-13T12:20:24.298Z,28.60
2022-08-13T12:22:57.191Z,28.58
2022-08-13T12:25:33.809Z,28.08
2022-08-13T12:28:22.075Z,27.46
2022-08-13T12:31:01.927Z,27.64
2022-08-13T12:33:39.602Z,27.58
2022-08-13T12:36:16.627Z,28.33
2022-08-13T12:38:59.078Z,28.92
2022-08-13T12:41:39.024Z,29.47
2022-08-13T12:45:09.945Z,29.68
2022-08-13T12:47:03.045Z,29.73
2022-08-13T12:50:00.564Z,29.91
2022-08-13T12:52:18.048Z,29.39
2022-08-13T12:55:03.184Z,29.89
2022-08-13T12:58:02.450Z,30.17
2022-08-13T13:00:32.277Z,30.89
2022-08-13T13:03:00.103Z,30.58
2022-08-13T13:05:35.239Z,30.87
2022-08-13T13:08:29.900Z,30.37
2022-08-13T13:11:12.424Z,29.98
2022-08-13T13:13:53.214Z,30.12
2022-08-13T13:16:35.022Z,30.82
2022-08-13T13:19:15.459Z,31.59
2022-08-13T13:21:49.746Z,31.24
2022-08-13T13:24:24.545Z,31.12
2022-08-13T13:27:03.800Z,30.33
2022-08-13T13:29:40.648Z,29.52
2022-08-13T13:32:38.644Z,28.96
2022-08-13T13:35:07.339Z,29.12
2022-08-13T13:38:06.658Z,28.22
2022-08-13T13:40:32.323Z,28.28
2022-08-13T13:43:22.887Z,28.21
2022-08-13T13:45:50.284Z,28.13
2022-08-13T13:48:19.162Z,28.14
2022-08-13T13:50:46.795Z,28.30
2022-08-13T13:53:27.027Z,28.70
2022-08-13T13:56:08.100Z,28.99
2022-08-13T13:58:41.159Z,28.92
2022-08-13T14:01:19.960Z,29.19
2022-08-13T14:03:50.236Z,29.46
2022-08-13T14:06:24.761Z,29.84
2022-08-13T14:08:56.003Z,29.74
2022-08-13T14:11:25.263Z,29.26
2022-08-13T14:13:58.809Z,29.55
2022-08-13T14:16:36.763Z,29.57
2022-08-13T14:19:15.405Z,30.13
2022-08-13T14:21:55.356Z,29.91
2022-08-13T14:24:34.902Z,30.01
2022-08-13T14:27:08.645Z,29.50
2022-08-13T14:30:00.414Z,29.19
2022-08-13T14:32:30.446Z,29.25
2022-08-13T14:35:16.337Z,29.01
2022-08-13T14:37:47.219Z,28.90
2022-08-13T14:40:20.849Z,28.79
2022-08-13T14:43:16.110Z,28.14
2022-08-13T14:45:58.039Z,27.88
2022-08-13T14:48:28.480Z,27.27
2022-08-13T14:51:19.722Z,27.80
2022-08-13T14:53:52.448Z,27.44
2022-08-13T14:56:22.368Z,27.34
2022-08-13T14:58:58.090Z,26.98
2022-08-13T15:01:28.710Z,27.08
2022-08-13T15:04:03.393Z,27.18
2022-08-13T15:06:35.672Z,26.80
2022-08-13T15:09:10.055Z,26.55
2022-08-13T15:11:44.684Z,26.33
2022-08-13T15:14:16.784Z,26.12
2022-08-13T15:16:43.631Z,25.64
2022-08-13T15:19:17.026Z,25.54
2022-08-13T15:21:47.664Z,25.04
2022-08-13T15:24:40.957Z,25.10
2022-08-13T15:27:37.718Z,24.79
2022-08-13T15:30:09.460Z,24.60
2022-08-13T15:32:39.055Z,24.66
2022-08-13T15:35:25.455Z,24.97
2022-08-13T15:37:56.780Z,24.59
2022-08-13T15:40:30.406Z,24.94
2022-08-13T15:43:09.610Z,25.13
2022-08-13T15:45:41.664Z,25.47
2022-08-13T15:48:19.315Z,25.69
2022-08-13T15:50:50.645Z,25.84
2022-08-13T15:53:18.733Z,25.95
2022-08-13T15:55:56.099Z,26.26
2022-08-13T15:58:30.838Z,26.14
2022-08-13T16:01:20.532Z,26.25
2022-08-13T16:03:56.036Z,26.17
2022-08-13T16:06:30.146Z,25.92
2022-08-13T16:09:03.820Z,26.11
2022-08-13T16:11:43.289Z,26.11
2022-08-13T16:14:18.463Z,26.16
2022-08-13T16:17:08.497Z,26.08
2022-08-13T16:19:51.803Z,26.16
2022-08-13T16:22:25.973Z,26.22
2022-08-13T16:24:59.150Z,26.24
2022-08-13T16:27:41.599Z,26.23
2022-08-13T16:30:18.589Z,25.96
2022-08-13T16:32:58.730Z,25.86
2022-08-13T16:35:39.403Z,25.69
2022-08-13T16:38:15.499Z,25.81
2022-08-13T16:40:53.786Z,25.71
2022-08-13T16:43:23.338Z,25.65
2022-08-13T16:45:52.978Z,25.60
2022-08-13T16:48:28.993Z,25.02
2022-08-13T16:51:01.341Z,25.17
2022-08-13T16:54:37.377Z,25.17
2022-08-13T16:56:17.463Z,25.05
2022-08-13T16:58:51.265Z,24.98
2022-08-13T17:01:18.644Z,24.92
2022-08-13T17:05:11.433Z,24.84
2022-08-13T17:07:17.175Z,24.83
2022-08-13T17:09:44.874Z,24.73
2022-08-13T17:12:11.745Z,24.78
2022-08-13T17:14:42.618Z,24.76
2022-08-13T17:17:14.771Z,24.72
2022-08-13T17:19:59.215Z,24.63
2022-08-13T17:22:41.311Z,24.45
2022-08-13T17:25:13.890Z,24.32
2022-08-13T17:27:52.140Z,24.23
2022-08-13T17:30:20.896Z,24.11
2022-08-13T17:32:48.480Z,24.20
2022-08-13T17:35:17.631Z,24.09
2022-08-13T17:37:58.707Z,24.19
2022-08-13T17:40:33.506Z,23.95
2022-08-13T17:44:01.864Z,23.83
2022-08-13T17:45:57.079Z,23.77
2022-08-13T17:48:36.673Z,23.74
2022-08-13T17:51:08.558Z,23.65
2022-08-13T17:53:42.076Z,23.67
2022-08-13T17:56:13.792Z,23.48
2022-08-13T17:58:45.441Z,23.57
2022-08-13T18:01:21.209Z,23.50
2022-08-13T18:03:57.763Z,23.48
2022-08-13T18:06:30.804Z,23.34
2022-08-13T18:09:03.734Z,23.16
2022-08-13T18:11:41.640Z,23.33
2022-08-13T18:14:21.240Z,23.16
2022-08-13T18:17:29.380Z,23.03
2022-08-13T18:19:48.183Z,22.81
2022-08-13T18:22:15.082Z,22.73
2022-08-13T18:24:41.849Z,22.81
2022-08-13T18:27:18.746Z,22.77
2022-08-13T18:30:00.168Z,22.62
2022-08-13T18:32:32.245Z,22.48
2022-08-13T18:35:12.519Z,22.30
2022-08-13T18:37:48.102Z,22.34
2022-08-13T18:40:18.918Z,22.36
2022-08-13T18:42:49.407Z,22.37
2022-08-13T18:45:55.757Z,22.15
2022-08-13T18:48:13.321Z,22.32
2022-08-13T18:50:51.532Z,22.34
2022-08-13T18:53:33.047Z,22.01
2022-08-13T18:56:13.525Z,22.06
2022-08-13T18:58:43.259Z,21.91
2022-08-13T19:01:14.190Z,21.89
2022-08-13T19:03:59.303Z,21.98
2022-08-13T19:06:29.628Z,22.05
2022-08-13T19:08:57.589Z,21.72
2022-08-13T19:11:31.505Z,21.80
2022-08-13T19:13:59.350Z,21.64
2022-08-13T19:16:26.264Z,21.83
2022-08-13T19:18:57.341Z,21.74
2022-08-13T19:21:54.138Z,21.69
2022-08-13T19:24:28.481Z,21.71
2022-08-13T19:26:57.910Z,21.50
2022-08-13T19:29:27.809Z,21.38
2022-08-13T19:31:55.219Z,21.49
2022-08-13T19:34:29.716Z,21.36
2022-08-13T19:37:01.904Z,21.25
2022-08-13T19:39:44.100Z,21.14
2022-08-13T19:42:24.369Z,20.88
2022-08-13T19:44:54.201Z,20.75
2022-08-13T19:48:00.562Z,20.66
2022-08-13T19:50:11.646Z,20.54
2022-08-13T19:52:39.965Z,20.28
2022-08-13T19:55:11.821Z,20.26
2022-08-13T19:57:59.409Z,20.14
2022-08-13T20:00:29.566Z,20.03
2022-08-13T20:03:00.010Z,19.97
2022-08-13T20:05:45.202Z,19.96
2022-08-13T20:08:34.498Z,19.87
2022-08-13T20:11:19.247Z,19.71
2022-08-13T20:13:54.232Z,19.44
2022-08-13T20:16:23.929Z,19.61
2022-08-13T20:18:55.052Z,19.53
2022-08-13T20:21:27.951Z,19.35
2022-08-13T20:24:22.345Z,19.35
2022-08-13T20:26:59.540Z,19.45
2022-08-13T20:29:29.275Z,19.35
2022-08-13T20:31:57.453Z,19.19
2022-08-13T20:34:26.699Z,19.17
2022-08-13T20:36:56.726Z,19.11
2022-08-13T20:39:40.949Z,19.25
2022-08-13T20:42:10.773Z,19.12
2022-08-13T20:44:40.818Z,19.14
2022-08-13T20:47:19.910Z,19.04
2022-08-13T20:49:53.978Z,18.98
2022-08-13T20:52:33.628Z,18.94
2022-08-13T20:55:16.260Z,19.10
2022-08-13T20:57:50.238Z,18.75
2022-08-13T21:00:51.975Z,18.47
2022-08-13T21:03:19.408Z,18.52
2022-08-13T21:05:50.402Z,18.55
2022-08-13T21:08:20.132Z,18.71
2022-08-13T21:10:49.352Z,18.58
2022-08-13T21:13:16.862Z,18.26
2022-08-13T21:16:08.785Z,18.07
2022-08-13T21:18:30.555Z,18.09
2022-08-13T21:21:01.644Z,18.06
2022-08-13T21:23:29.240Z,18.00
2022-08-13T21:26:03.197Z,18.24
2022-08-13T21:28:35.955Z,18.19
2022-08-13T21:31:06.763Z,18.18
2022-08-13T21:33:39.524Z,18.13
2022-08-13T21:36:07.042Z,18.20
2022-08-13T21:38:33.791Z,18.06
2022-08-13T21:41:00.624Z,18.07
2022-08-13T21:43:27.634Z,18.06
2022-08-13T21:45:56.395Z,18.22
2022-08-13T21:48:23.660Z,18.31
2022-08-13T21:50:50.468Z,18.17
2022-08-13T21:53:27.665Z,18.12
2022-08-13T21:56:07.603Z,17.97
2022-08-13T21:58:36.970Z,17.93
2022-08-13T22:01:06.104Z,17.92
2022-08-13T22:04:02.501Z,17.96
2022-08-13T22:06:21.492Z,17.93
2022-08-13T22:08:48.281Z,17.94
2022-08-13T22:11:15.291Z,17.80
2022-08-13T22:13:43.597Z,17.78
2022-08-13T22:16:10.443Z,17.79
2022-08-13T22:18:40.246Z,17.91
2022-08-13T22:21:07.674Z,17.85
2022-08-13T22:23:35.056Z,17.68
2022-08-13T22:26:02.068Z,17.57
2022-08-13T22:28:50.334Z,17.70
2022-08-13T22:31:18.930Z,17.57
2022-08-13T22:33:49.853Z,17.53
2022-08-13T22:36:31.581Z,17.56
2022-08-13T22:38:59.451Z,17.82
2022-08-13T22:41:26.263Z,17.87
2022-08-13T22:43:54.189Z,17.86
2022-08-13T22:46:21.330Z,17.67
2022-08-13T22:48:50.269Z,17.49
2022-08-13T22:51:18.402Z,17.46
2022-08-13T22:53:46.531Z,17.82
2022-08-13T22:56:14.789Z,17.83
2022-08-13T22:58:42.712Z,17.65
2022-08-13T23:03:36.106Z,17.67
2022-08-13T23:06:03.123Z,17.80
2022-08-13T23:08:30.092Z,17.82
2022-08-13T23:10:56.909Z,17.84
2022-08-13T23:13:25.356Z,17.82
2022-08-13T23:15:55.020Z,17.87
2022-08-13T23:18:26.097Z,17.88
2022-08-13T23:20:56.518Z,17.78
2022-08-13T23:23:29.748Z,17.86
2022-08-13T23:25:57.958Z,18.07
2022-08-13T23:28:25.354Z,18.22
2022-08-13T23:30:52.336Z,18.02
2022-08-13T23:33:21.022Z,17.82
2022-08-13T23:35:49.128Z,17.91
2022-08-13T23:38:24.992Z,17.76
2022-08-13T23:40:52.150Z,17.74
2022-08-13T23:43:21.208Z,17.94
2022-08-13T23:45:53.678Z,18.00
2022-08-13T23:48:20.845Z,17.77
2022-08-13T23:50:47.936Z,17.57
2022-08-13T23:53:28.151Z,17.48
2022-08-13T23:55:58.218Z,17.40
2022-08-13T23:58:34.937Z,17.37
